Latest Coastal Weather Observations for King Island Airport

IDV60701

Issued at 7:11 am EST Sunday 24 July 2016 (issued every 10 minutes, with the page automatically refreshed every 10 minutes)

About coastal observations | Map of coastal stations | Coastal observations for VIC | Marine services | Other Formats
Station Details ID: 098017 Name: KING ISLAND AIRPORT Lat: -39.88 Lon: 143.88 Height: 37.0 m
Data from the previous 72 hours. | See also: Recent months at King Island Airport
Date/Time
EST
Temp
°C
Wind Pressure Rain since
9am
mm
Weather Cloud Vis
km
Sea
Height
m
Swell
Dir  Spd
kts
Gust
kts
hPa Trend Height
m
Period
s
Dir
24/07:00am 8.2 NNW 9 12 1007.3 - 2.4 - Partly cloudy 10 - - - -
24/06:30am 7.4 WNW 8 9 1007.3 - 2.4 - Partly cloudy 10 - - - -
24/06:00am 7.7 WNW 9 12 1007.3 - 2.4 - Mostly clear 10 - - - -
24/05:30am 7.5 WNW 12 16 1007.5 - 2.4 - Partly cloudy 10 - - - -
24/05:23am 8.0 WNW 15 19 1007.6 - 2.4 - Partly cloudy 10 - - - -
24/05:00am 7.2 NNW 5 6 1007.9 - 2.4 - Partly cloudy 10 - - - -
24/04:30am 7.4 NW 14 20 1008.1 - 2.4 - Partly cloudy 10 - - - -
24/04:19am 8.2 NNW 13 25 1008.2 - 2.2 - Partly cloudy 10 - - - -
24/04:00am 7.5 WNW 7 9 1008.3 - 2.2 - Partly cloudy 10 - - - -
24/03:30am 8.0 W 12 20 1008.5 - 2.2 - Partly cloudy 10 - - - -
24/03:00am 8.5 WNW 10 14 1008.7 - 2.2 - Cloudy 10 - - - -
24/02:30am 8.4 W 8 12 1008.8 - 2.2 - Partly cloudy 10 - - - -
24/02:00am 8.3 W 10 15 1008.9 - 2.2 - - 10 - - - -
24/01:30am 8.1 W 12 17 1009.1 - 2.2 - - 10 - - - -
24/01:00am 7.0 WNW 8 9 1009.3 - 2.2 - Partly cloudy 10 - - - -
24/12:30am 7.7 W 9 12 1009.4 - 2.2 - - 10 - - - -
24/12:00am 7.6 W 11 16 1009.7 - 2.2 - Mostly clear 10 - - - -
 
Date/Time
EST
Temp
°C
Wind Pressure Rain since
9am
mm
Weather Cloud Vis
km
Sea
Height
m
Swell
Dir  Spd
kts
Gust
kts
hPa Trend Height
m
Period
s
Dir
23/11:30pm 8.5 W 9 15 1009.8 - 2.2 - Partly cloudy 10 - - - -
23/11:00pm 8.2 W 11 15 1009.9 - 2.2 - Partly cloudy 10 - - - -
23/10:30pm 8.6 W 9 14 1009.8 - 2.2 - Partly cloudy 10 - - - -
23/10:00pm 8.5 W 11 16 1009.8 - 2.2 - Partly cloudy 10 - - - -
23/09:30pm 8.3 WSW 10 15 1009.7 - 2.2 - Partly cloudy 10 - - - -
23/09:00pm 8.0 W 12 17 1009.5 - 2.2 - - 10 - - - -
23/08:30pm 8.3 W 12 18 1009.1 - 2.2 - Partly cloudy 10 - - - -
23/08:00pm 8.3 SW 15 20 1008.9 - 2.2 - Partly cloudy 10 - - - -
23/07:30pm 8.1 WSW 13 18 1008.7 - 2.2 - Partly cloudy 10 - - - -
23/07:00pm 6.5 SW 10 15 1008.3 - 2.2 - Partly cloudy 10 - - - -
23/06:37pm 6.5 SSW 15 25 1008.0 - 2.0 - Partly cloudy 10 - - - -
23/06:30pm 6.6 SW 17 25 1008.0 - 2.0 - Partly cloudy 10 - - - -
23/06:27pm 7.0 WSW 15 25 1008.1 - 2.0 - Partly cloudy 10 - - - -
23/06:16pm 7.2 WSW 15 28 1007.8 - 2.0 - Partly cloudy 10 - - - -
23/06:00pm 7.8 SW 19 28 1007.6 - 1.8 Rain Cloudy 10 - - - -
23/05:31pm 8.0 SW 22 32 1007.0 - 1.8 - Partly cloudy 10 - - - -
23/05:30pm 8.3 SW 23 32 1007.0 - 1.8 - Partly cloudy 10 - - - -
23/05:05pm 8.8 SW 21 31 1006.4 - 1.8 - Partly cloudy 10 - - - -
23/05:00pm 8.7 SW 21 29 1006.3 - 1.8 - Partly cloudy 10 - - - -
23/04:30pm 8.9 WSW 25 33 1005.8 - 1.8 - Partly cloudy 10 - - - -
23/04:00pm 8.3 SW 27 40 1005.4 - 1.8 - Partly cloudy 10 - - - -
23/03:30pm 8.8 WSW 25 36 1004.9 - 1.8 - Partly cloudy 10 - - - -
23/03:00pm 8.8 WSW 25 39 1004.3 - 1.8 Rain Cloudy 10 - - - -
23/02:30pm 9.1 WSW 25 35 1003.6 - 1.8 - Partly cloudy 10 - - - -
23/02:00pm 9.7 WSW 28 42 1003.0 - 1.8 - Partly cloudy 10 - - - -
23/01:30pm 9.3 WSW 27 39 1002.6 - 1.8 - Partly cloudy 10 - - - -
23/01:01pm 8.3 WSW 24 34 1002.4 - 1.8 - Partly cloudy 10 - - - -
23/01:00pm 8.3 WSW 25 34 1002.3 - 1.8 - Partly cloudy 10 - - - -
23/12:30pm 6.6 SW 30 43 1002.5 - 1.8 - Partly cloudy 10 - - - -
23/12:13pm 7.8 WSW 27 38 1002.3 - 1.8 - Partly cloudy 10 - - - -
23/12:08pm 7.8 WSW 24 37 1002.3 - 1.8 - Partly cloudy 10 - - - -
23/12:05pm 7.7 WSW 21 31 1002.3 - 1.8 - Partly cloudy 10 - - - -
23/12:00pm 7.2 WSW 23 31 1002.4 - 1.8 Rain Partly cloudy 10 - - - -
23/11:54am 6.8 WSW 23 32 1002.4 - 1.8 - Partly cloudy 10 - - - -
23/11:46am 5.9 SW 27 42 1002.6 - 1.8 - Partly cloudy 6 - - - -
23/11:45am 5.5 SW 27 42 1002.5 - 1.8 - Partly cloudy 6 - - - -
23/11:37am 5.3 SW 32 42 1003.0 - 1.4 - Partly cloudy 5 - - - -
23/11:30am 6.1 WSW 28 42 1002.6 - 1.0 - Partly cloudy 10 - - - -
23/11:02am 7.1 WSW 24 35 1002.2 - 0.8 - Partly cloudy 10 - - - -
23/11:00am 7.3 WSW 24 35 1002.2 - 0.8 - Partly cloudy 10 - - - -
23/10:48am 6.0 WSW 29 53 1002.3 - 0.8 - Partly cloudy 4 - - - -
23/10:45am 5.9 WSW 29 53 1002.4 - 0.6 - Partly cloudy 5 - - - -
23/10:43am 6.0 WSW 28 53 1002.2 - 0.6 - Partly cloudy 7 - - - -
23/10:30am 7.7 WSW 25 36 1001.6 - 0.4 - Partly cloudy 10 - - - -
23/10:00am 6.0 W 26 42 1001.1 - 0.4 - Partly cloudy 10 - - - -
23/09:30am 7.3 WSW 29 42 1000.4 - 0.0 - Partly cloudy 10 - - - -
23/09:01am 5.4 SW 24 34 1000.2 - 0.0 - Partly cloudy 10 - - - -
23/09:00am 5.5 SW 25 34 1000.1 - 3.8 Showers Cloudy 10 - - - -
23/08:44am 4.8 SW 30 47 1000.3 - 3.6 - Partly cloudy 5 - - - -
23/08:30am 7.2 WSW 29 42 999.3 - 3.2 - Partly cloudy 10 - - - -
23/08:00am 7.5 WSW 29 40 998.7 - 3.2 - Partly cloudy 10 - - - -
23/07:32am 7.6 WSW 29 39 998.1 - 3.2 - Partly cloudy 10 - - - -
23/07:30am 7.6 WSW 30 39 998.1 - 3.2 - Partly cloudy 10 - - - -
23/07:00am 7.3 WSW 28 41 997.6 - 3.2 - Partly cloudy 10 - - - -
23/06:54am 7.0 WSW 26 39 997.5 - 3.2 - Partly cloudy 10 - - - -
23/06:44am 6.2 WSW 31 45 997.4 - 3.2 - Partly cloudy 10 - - - -
23/06:30am 4.8 WSW 28 51 997.6 - 3.2 - Partly cloudy 10 - - - -
23/06:29am 4.7 WSW 27 51 997.7 - 3.2 - Partly cloudy 10 - - - -
23/06:02am 7.3 WSW 28 40 996.4 - 3.0 - Partly cloudy 10 - - - -
23/06:00am 7.0 WSW 28 37 996.3 - 3.0 Recent precip. Partly cloudy 10 - - - -
23/05:30am 6.2 WSW 29 44 995.6 - 3.0 - Partly cloudy 10 - - - -
23/05:00am 7.2 WSW 31 41 994.8 - 2.8 - Partly cloudy 10 - - - -
23/04:54am 7.6 WSW 32 46 994.6 - 2.8 - Partly cloudy 10 - - - -
23/04:49am 8.1 WSW 30 46 994.3 - 2.8 - Partly cloudy 10 - - - -
23/04:30am 8.3 WSW 25 39 993.8 - 2.8 - Partly cloudy 10 - - - -
23/04:00am 7.8 WSW 30 41 993.5 - 2.8 - Partly cloudy 10 - - - -
23/03:30am 7.5 SW 27 37 992.9 - 2.8 - Partly cloudy 10 - - - -
23/03:17am 6.9 SW 26 36 992.7 - 2.8 - Partly cloudy 10 - - - -
23/03:00am 7.3 WSW 25 42 992.6 - 2.6 Showers Cloudy 4 - - - -
23/02:58am 6.9 WSW 23 42 992.6 - 2.6 - Partly cloudy 5 - - - -
23/02:30am 7.8 W 23 35 992.1 - 1.8 - Partly cloudy 10 - - - -
23/02:00am 9.3 WSW 21 32 991.3 - 1.6 - Partly cloudy 10 - - - -
23/01:53am 9.5 WSW 18 28 991.1 - 1.6 - Partly cloudy 10 - - - -
23/01:30am 8.9 WSW 14 20 990.9 - 1.6 - Partly cloudy 10 - - - -
23/01:12am 8.6 WSW 15 25 991.1 - 1.6 - Partly cloudy 10 - - - -
23/01:00am 9.7 WSW 13 20 990.7 - 1.6 - Partly cloudy 10 - - - -
23/12:30am 9.7 WSW 13 17 990.8 - 1.6 - Partly cloudy 10 - - - -
23/12:00am 9.4 WSW 10 14 990.6 - 1.6 - Cloudy 10 - - - -
 
Date/Time
EST
Temp
°C
Wind Pressure Rain since
9am
mm
Weather Cloud Vis
km
Sea
Height
m
Swell
Dir  Spd
kts
Gust
kts
hPa Trend Height
m
Period
s
Dir
22/11:30pm 9.1 SW 11 17 990.7 - 1.6 - Partly cloudy 10 - - - -
22/11:00pm 9.5 WSW 8 11 990.9 - 1.6 - Partly cloudy 10 - - - -
22/10:30pm 9.5 W 9 11 991.1 - 1.6 - Partly cloudy 10 - - - -
22/10:00pm 9.5 WSW 10 14 991.0 - 1.6 - - 10 - - - -
22/09:30pm 9.7 W 10 15 991.2 - 1.6 - Partly cloudy 10 - - - -
22/09:00pm 9.6 W 11 15 991.6 - 1.6 - Cloudy 10 - - - -
22/08:30pm 9.7 W 10 15 992.1 - 1.6 - Partly cloudy 10 - - - -
22/08:00pm 9.5 WSW 12 17 992.0 - 1.6 - Partly cloudy 10 - - - -
22/07:30pm 10.0 WSW 15 21 992.2 - 1.6 - Partly cloudy 10 - - - -
22/07:00pm 9.9 WSW 15 22 992.3 - 1.6 - Partly cloudy 10 - - - -
22/06:30pm 9.7 WSW 13 19 992.6 - 1.6 - Partly cloudy 10 - - - -
22/06:00pm 10.3 WSW 16 22 992.5 - 1.6 - Cloudy 10 - - - -
22/05:30pm 10.6 WSW 17 24 992.4 - 1.6 - Partly cloudy 10 - - - -
22/05:00pm 10.8 WSW 18 28 992.2 - 1.6 - Partly cloudy 10 - - - -
22/04:35pm 11.1 W 18 28 992.3 - 1.6 - Partly cloudy 10 - - - -
22/04:30pm 11.3 W 20 28 992.3 - 1.6 - Partly cloudy 10 - - - -
22/04:06pm 11.2 W 22 32 992.0 - 1.6 - Partly cloudy 10 - - - -
22/04:00pm 11.4 W 22 30 992.0 - 1.6 - Partly cloudy 10 - - - -
22/03:30pm 11.6 W 22 35 991.6 - 1.6 - Partly cloudy 10 - - - -
22/03:12pm 12.5 W 21 31 991.4 - 1.6 - Partly cloudy 10 - - - -
22/03:00pm 12.3 W 23 31 991.4 - 1.6 - Partly cloudy 10 - - - -
22/02:30pm 12.2 W 25 35 991.2 - 1.6 - Partly cloudy 10 - - - -
22/02:01pm 12.7 W 23 34 990.8 - 1.6 - Partly cloudy 10 - - - -
22/02:00pm 12.6 W 22 31 990.8 - 1.6 - Partly cloudy 10 - - - -
22/01:30pm 12.4 W 23 36 990.8 - 1.6 - Partly cloudy 10 - - - -
22/01:00pm 12.7 W 26 36 990.6 - 1.6 - Partly cloudy 10 - - - -
22/12:30pm 12.9 W 24 35 990.3 - 1.6 - Partly cloudy 10 - - - -
22/12:00pm 13.0 W 29 42 990.4 - 1.6 Rain Cloudy 10 - - - -
22/11:30am 12.8 WNW 29 39 990.2 - 1.6 - Partly cloudy 10 - - - -
22/11:16am 12.2 WNW 30 40 990.1 - 1.6 - Partly cloudy 10 - - - -
22/11:00am 10.9 NW 31 41 990.4 - 1.4 - Partly cloudy 5 - - - -
22/10:43am 10.9 WNW 34 54 991.2 - 0.6 - Partly cloudy 5 - - - -
22/10:42am 11.9 NW 33 54 991.3 - 0.2 - Partly cloudy 7 - - - -
22/10:40am 14.5 NW 30 41 990.3 - 0.2 - Partly cloudy 10 - - - -
22/10:30am 14.7 NW 29 37 990.3 - 0.2 - Partly cloudy 10 - - - -
22/10:02am 13.6 NW 30 40 990.5 - 0.2 - Partly cloudy 10 - - - -
22/10:00am 13.7 NW 29 37 990.5 - 0.2 - Partly cloudy 10 - - - -
22/09:37am 13.9 NW 27 37 990.8 - 0.2 - Partly cloudy 8 - - - -
22/09:30am 13.7 NW 29 38 990.9 - 0.2 - Partly cloudy 6 - - - -
22/09:02am 13.8 NW 29 39 991.2 - 0.0 - Partly cloudy 10 - - - -
22/09:00am 13.8 NW 28 37 991.3 - 10.6 Rain Cloudy 10 - - - -
22/08:52am 13.7 NW 25 35 991.5 - 10.6 - Partly cloudy 10 - - - -
22/08:30am 13.5 NW 23 33 991.8 - 9.4 - Partly cloudy 5 - - - -
22/08:29am 13.5 NW 23 33 991.7 - 9.4 - Partly cloudy 6 - - - -
22/08:00am 13.6 NW 19 26 992.2 - 9.0 - Partly cloudy 9 - - - -
22/07:30am 13.9 NW 22 28 992.9 - 9.0 - Partly cloudy 9 - - - -
22/07:00am 14.0 WNW 20 27 993.0 - 9.0 - Partly cloudy 9 - - - -
22/06:30am 13.7 WNW 23 30 993.1 - 9.0 - - 9 - - - -
22/06:00am 14.0 WNW 25 30 993.1 - 9.0 Rain Cloudy 9 - - - -
22/05:36am 14.3 NW 22 35 993.2 - 9.0 - Partly cloudy 9 - - - -
22/05:30am 14.4 NW 22 30 993.2 - 9.0 - Partly cloudy 10 - - - -
22/05:00am 14.6 NW 22 29 993.5 - 9.0 - Partly cloudy 10 - - - -
22/04:30am 14.8 NW 23 31 994.1 - 9.0 - Partly cloudy 9 - - - -
22/04:00am 14.9 NW 20 27 994.3 - 9.0 - Partly cloudy 10 - - - -
22/03:44am 14.9 NW 26 32 994.6 - 9.0 - Partly cloudy 10 - - - -
22/03:40am 14.8 NW 25 32 994.8 - 9.0 - Partly cloudy 10 - - - -
22/03:30am 14.6 NW 24 32 994.8 - 9.0 - Partly cloudy 5 - - - -
22/03:24am 14.7 NW 25 32 995.0 - 9.0 - Partly cloudy 4 - - - -
22/03:16am 14.7 NW 24 33 995.2 - 8.0 - Partly cloudy 5 - - - -
22/03:13am 14.8 NNW 25 33 995.1 - 7.8 - Partly cloudy 5 - - - -
22/03:06am 14.8 NNW 23 30 994.5 - 7.4 - Partly cloudy 8 - - - -
22/03:00am 14.7 NNW 23 29 994.9 - 7.4 Showers Cloudy 6 - - - -
22/02:53am 14.6 NNW 23 29 995.0 - 7.2 - Partly cloudy 5 - - - -
22/02:46am 14.6 NNW 21 29 995.3 - 6.8 - Partly cloudy 8 - - - -
22/02:36am 14.5 NNW 18 28 995.6 - 6.8 - Partly cloudy 5 - - - -
22/02:30am 14.4 NNW 20 28 995.7 - 6.8 - Partly cloudy 5 - - - -
22/02:26am 14.4 NNW 22 28 995.8 - 6.6 - Partly cloudy 5 - - - -
22/02:00am 14.4 NNW 30 40 996.3 - 5.6 - Partly cloudy 3 - - - -
22/01:57am 14.4 NNW 30 40 996.5 - 5.4 - Partly cloudy 3 - - - -
22/01:47am 14.8 N 27 40 997.0 - 4.6 - Partly cloudy 6 - - - -
22/01:31am 14.6 N 21 31 997.3 - 3.8 - Partly cloudy 3 - - - -
22/01:30am 14.6 N 21 31 997.2 - 3.6 - Partly cloudy 8 - - - -
22/01:06am 15.5 N 27 37 996.5 - 2.6 - Partly cloudy 10 - - - -
22/01:00am 15.4 N 28 37 996.3 - 2.6 - Partly cloudy 10 - - - -
22/12:46am 15.1 N 24 35 996.4 - 2.6 - Partly cloudy 10 - - - -
22/12:30am 14.4 N 23 30 996.9 - 2.6 - Partly cloudy 10 - - - -
22/12:00am 14.1 N 22 31 997.9 - 2.6 - Partly cloudy 10 - - - -
 
Date/Time
EST
Temp
°C
Wind Pressure Rain since
9am
mm
Weather Cloud Vis
km
Sea
Height
m
Swell
Dir  Spd
kts
Gust
kts
hPa Trend Height
m
Period
s
Dir
21/11:32pm 13.9 N 21 31 998.9 - 2.6 - Partly cloudy 10 - - - -
21/11:30pm 13.9 N 21 30 999.1 - 2.6 - Partly cloudy 10 - - - -
21/11:00pm 13.4 N 19 25 1000.2 - 2.6 - Partly cloudy 10 - - - -
21/10:30pm 13.4 N 20 27 1001.1 - 1.8 - Partly cloudy 10 - - - -
21/10:00pm 13.5 N 20 27 1002.2 - 1.6 - Partly cloudy 10 - - - -
21/09:51pm 13.5 NNE 19 27 1002.6 - 1.6 - Partly cloudy 10 - - - -
21/09:30pm 13.5 N 13 17 1004.0 - 1.4 - Partly cloudy 10 - - - -
21/09:00pm 13.5 N 14 19 1004.7 - 0.6 - Cloudy 10 - - - -
21/08:30pm 12.3 NNE 9 12 1004.0 - 0.6 - Partly cloudy 10 - - - -
21/08:00pm 11.8 NE 8 10 1004.8 - 0.6 - Partly cloudy 10 - - - -
21/07:30pm 11.8 NNE 10 14 1005.1 - 0.6 - - 10 - - - -
21/07:00pm 12.2 NNE 8 10 1006.1 - 0.6 - Partly cloudy 10 - - - -
21/06:30pm 12.4 NNE 7 9 1006.4 - 0.6 - Partly cloudy 10 - - - -
21/06:00pm 12.9 N 9 12 1006.9 - 0.6 - Cloudy 10 - - - -
21/05:30pm 13.2 N 11 15 1007.5 - 0.6 - Partly cloudy 10 - - - -
21/05:26pm 13.3 N 11 15 1007.5 - 0.6 - Partly cloudy 10 - - - -
21/05:00pm 13.5 NNW 9 14 1007.8 - 0.6 - Cloudy 10 - - - -
21/04:49pm 13.6 NNW 10 13 1008.0 - 0.6 - Cloudy 10 - - - -
21/04:30pm 13.6 NNW 11 15 1008.4 - 0.6 - Cloudy 10 - - - -
21/04:00pm 13.4 NNW 12 15 1008.5 - 0.6 - Partly cloudy 10 - - - -
21/03:59pm 13.4 NNW 12 16 1008.5 - 0.6 - Partly cloudy 10 - - - -
21/03:30pm 13.2 NNW 14 19 1008.6 - 0.6 - Cloudy 10 - - - -
21/03:00pm 12.8 N 13 16 1008.8 - 0.6 - Cloudy 10 - - - -
21/02:30pm 12.7 N 15 18 1009.2 - 0.6 - Partly cloudy 10 - - - -
21/02:12pm 12.6 N 14 19 1009.4 - 0.6 - Partly cloudy 10 - - - -
21/02:00pm 12.5 NNE 14 19 1009.6 - 0.6 - Partly cloudy 10 - - - -
21/01:44pm 12.7 NNE 13 17 1009.7 - 0.6 - Partly cloudy 10 - - - -
21/01:30pm 12.5 N 13 17 1010.0 - 0.6 - Partly cloudy 10 - - - -
21/01:00pm 12.5 NNE 13 17 1010.8 - 0.6 - Partly cloudy 10 - - - -
21/12:30pm 12.5 NNE 13 15 1011.4 - 0.6 - Partly cloudy 10 - - - -
21/12:00pm 12.1 NNE 13 16 1012.3 - 0.6 - Cloudy 10 - - - -
21/11:53am 11.9 NNE 13 18 1012.5 - 0.6 - Partly cloudy 10 - - - -
21/11:30am 11.5 NNE 11 15 1012.9 - 0.6 - Partly cloudy 10 - - - -
21/11:00am 11.2 NNE 10 14 1013.7 - 0.6 - Partly cloudy 10 - - - -
21/10:30am 11.2 NE 9 14 1014.2 - 0.2 - Cloudy 10 - - - -
21/10:00am 11.0 NE 10 14 1014.4 - 0.2 - Partly cloudy 10 - - - -
21/09:30am 10.8 NE 9 12 1014.9 - 0.2 - Partly cloudy 10 - - - -
21/09:00am 10.7 NE 8 10 1015.0 - 0.0 Rain Cloudy 10 - - - -
21/08:30am 10.0 NE 7 9 1015.3 - 0.0 - Cloudy 10 - - - -
21/08:00am 9.6 ENE 6 8 1015.5 - 0.0 - Partly cloudy 10 - - - -
21/07:30am 9.2 NE 5 7 1015.8 - 0.0 - Partly cloudy 10 - - - -

Other Formats:

Comma delimited format used in spreadsheet applications
http://www.bom.gov.au/fwo/IDV60701/IDV60701.94850.axf

JavaScript Object Notation format (JSON) in row-major order
http://www.bom.gov.au/fwo/IDV60701/IDV60701.94850.json